Time;durP1;ratioP1;P1;durP2;ratioP2;P2;SDS_P1;SDS_P2;PMS_P1;PMS_P2;Temp;Humidity;BMP_temperature;BMP_pressure;BME280_temperature;BME280_humidity;BME280_pressure;Samples;Min_cycle;Max_cycle;Signal;HPM_P1;HPM_P2
2022/09/09 00:02:21;;;;;;;0.85;0.30;;;16.80;99.90;;;;;;4931836;29;20071;-77
2022/09/09 00:05:12;;;;;;;0.15;0.15;;;16.80;99.90;;;;;;4932413;29;20090;-78
2022/09/09 00:07:45;;;;;;;0.68;0.47;;;16.70;99.90;;;;;;4932720;29;20043;-77
2022/09/09 00:10:34;;;;;;;0.17;0.17;;;16.70;99.90;;;;;;4931431;29;20044;-77
2022/09/09 00:13:36;;;;;;;3.28;0.40;;;16.70;99.90;;;;;;4931558;29;20058;-77
2022/09/09 00:16:24;;;;;;;3.60;0.98;;;16.70;99.90;;;;;;4932394;29;20099;-78
2022/09/09 00:19:07;;;;;;;13.05;2.33;;;16.80;99.90;;;;;;4931998;29;20072;-77
2022/09/09 00:21:38;;;;;;;4.28;1.55;;;16.80;99.90;;;;;;4933567;29;20114;-77
2022/09/09 00:24:38;;;;;;;2.55;0.30;;;16.80;99.90;;;;;;4933032;29;20028;-77
2022/09/09 00:27:26;;;;;;;0.10;0.10;;;16.80;99.90;;;;;;4932416;29;20077;-78
2022/09/09 00:30:22;;;;;;;1.88;0.85;;;16.80;99.90;;;;;;4931791;29;20043;-77
2022/09/09 00:32:54;;;;;;;1.40;0.40;;;16.90;99.90;;;;;;4932858;29;20051;-76
2022/09/09 00:35:39;;;;;;;0.50;0.32;;;16.90;99.90;;;;;;4933361;29;20031;-76
2022/09/09 00:38:41;;;;;;;1.20;0.20;;;16.90;99.90;;;;;;4932231;29;20133;-77
2022/09/09 00:41:44;;;;;;;0.80;0.32;;;16.90;99.90;;;;;;4919215;29;20408;-77
2022/09/09 00:44:35;;;;;;;0.47;0.35;;;16.80;99.90;;;;;;4919551;29;20039;-76
2022/09/09 00:47:53;;;;;;;1.30;0.57;;;16.80;99.90;;;;;;4931987;29;20059;-76
2022/09/09 00:50:38;;;;;;;0.45;0.38;;;16.70;99.90;;;;;;4858478;29;20329;-77
2022/09/09 00:53:27;;;;;;;0.85;0.50;;;16.70;99.90;;;;;;4859864;29;20515;-76
2022/09/09 00:56:05;;;;;;;0.93;0.70;;;16.80;99.90;;;;;;4874371;29;20513;-77
2022/09/09 00:58:32;;;;;;;1.73;0.55;;;16.80;99.90;;;;;;4874585;29;20033;-77
2022/09/09 01:01:12;;;;;;;0.98;0.47;;;16.70;99.90;;;;;;4873769;29;20049;-77
2022/09/09 01:04:05;;;;;;;2.90;0.90;;;16.70;99.90;;;;;;4858663;29;20139;-76
2022/09/09 01:06:38;;;;;;;0.60;0.40;;;16.70;99.90;;;;;;4873887;29;20253;-76
2022/09/09 01:09:29;;;;;;;1.85;0.77;;;16.60;99.90;;;;;;4882934;29;20040;-76
2022/09/09 01:12:14;;;;;;;4.43;1.05;;;16.60;99.90;;;;;;4872220;29;20547;-76
2022/09/09 01:14:47;;;;;;;0.57;0.57;;;16.50;99.90;;;;;;4880148;29;20424;-76
2022/09/09 01:17:32;;;;;;;1.50;0.80;;;16.40;99.90;;;;;;4862178;29;20070;-76
2022/09/09 01:20:04;;;;;;;6.43;0.50;;;16.50;99.90;;;;;;4867130;29;20037;-77
2022/09/09 01:23:01;;;;;;;1.25;0.98;;;16.40;99.90;;;;;;4931095;29;20043;-77
2022/09/09 01:26:19;;;;;;;1.08;0.98;;;16.30;99.90;;;;;;4955133;28;20448;-76
2022/09/09 01:28:52;;;;;;;1.48;0.82;;;16.20;99.90;;;;;;4955050;28;20035;-75
2022/09/09 01:31:27;;;;;;;0.68;0.50;;;16.20;99.90;;;;;;4955179;28;20031;-77
2022/09/09 01:33:53;;;;;;;4.93;1.27;;;16.10;99.90;;;;;;4954733;28;20027;-77
2022/09/09 01:36:37;;;;;;;5.03;1.50;;;16.10;99.90;;;;;;4955274;28;20077;-75
2022/09/09 01:39:03;;;;;;;4.28;1.05;;;16.10;99.90;;;;;;4954652;28;20709;-76
2022/09/09 01:41:29;;;;;;;5.65;0.93;;;16.10;99.90;;;;;;4943851;29;20174;-76
2022/09/09 01:43:56;;;;;;;2.58;0.85;;;16.10;99.90;;;;;;4950378;29;20032;-76
2022/09/09 01:46:23;;;;;;;15.32;1.48;;;16.10;99.90;;;;;;4950477;29;20138;-77
2022/09/09 01:48:52;;;;;;;2.47;1.55;;;16.20;99.90;;;;;;4949825;28;20060;-77
2022/09/09 01:51:18;;;;;;;4.57;1.95;;;16.20;99.90;;;;;;4950075;28;20377;-77
2022/09/09 01:53:46;;;;;;;4.15;1.15;;;16.20;99.90;;;;;;4949560;28;20031;-76
2022/09/09 01:56:41;;;;;;;3.22;1.15;;;16.20;99.90;;;;;;4935914;29;20079;-76
2022/09/09 01:59:37;;;;;;;0.85;0.73;;;16.20;99.90;;;;;;4949569;29;20041;-76
2022/09/09 02:02:36;;;;;;;5.18;1.52;;;16.20;99.90;;;;;;4947905;29;20119;-76
2022/09/09 02:05:27;;;;;;;0.70;0.50;;;16.20;99.90;;;;;;4935529;29;20075;-76
2022/09/09 02:08:14;;;;;;;0.60;0.40;;;16.20;99.90;;;;;;4916864;29;20163;-76
2022/09/09 02:11:01;;;;;;;3.00;1.35;;;16.20;99.90;;;;;;4935277;29;20038;-76
2022/09/09 02:13:31;;;;;;;0.65;0.65;;;16.20;99.90;;;;;;4948041;29;20035;-76
2022/09/09 02:16:27;;;;;;;2.90;1.55;;;16.20;99.90;;;;;;4953163;29;20051;-76
2022/09/09 02:19:16;;;;;;;3.40;1.30;;;16.20;99.90;;;;;;4952416;28;20496;-76
2022/09/09 02:21:45;;;;;;;1.75;0.73;;;16.20;99.90;;;;;;4949081;29;20122;-76
2022/09/09 02:24:15;;;;;;;4.60;2.53;;;16.10;99.90;;;;;;4952971;28;20409;-76
2022/09/09 02:26:44;;;;;;;2.47;1.20;;;16.10;99.90;;;;;;4953268;29;20031;-76
2022/09/09 02:29:32;;;;;;;1.02;0.55;;;16.10;99.90;;;;;;4952941;28;20060;-77
2022/09/09 02:32:03;;;;;;;0.80;0.57;;;16.20;99.90;;;;;;4952938;28;20036;-76
2022/09/09 02:34:31;;;;;;;;;;;16.10;99.90;;;;;;4953497;29;20031;-76
2022/09/09 02:36:59;;;;;;;1.67;0.95;;;16.20;99.90;;;;;;4953876;28;19917;-77
2022/09/09 02:39:25;;;;;;;1.40;0.70;;;16.30;99.90;;;;;;4952282;28;20039;-77
2022/09/09 02:41:52;;;;;;;1.20;0.52;;;16.20;99.90;;;;;;4954109;28;20039;-76
2022/09/09 02:44:19;;;;;;;1.02;0.70;;;16.20;99.90;;;;;;4953643;29;20027;-77
2022/09/09 02:46:53;;;;;;;0.45;0.45;;;16.30;99.90;;;;;;4968824;23;20059;-78
2022/09/09 02:49:41;;;;;;;0.90;0.63;;;16.30;99.90;;;;;;4927630;29;20050;-79
2022/09/09 02:52:26;;;;;;;4.13;1.17;;;16.30;99.90;;;;;;4933247;29;20503;-79
2022/09/09 02:55:01;;;;;;;5.72;1.23;;;16.30;99.90;;;;;;4933285;29;20036;-79
2022/09/09 02:57:30;;;;;;;0.82;0.68;;;16.30;99.90;;;;;;4934737;29;20059;-80
2022/09/09 02:59:58;;;;;;;0.80;0.57;;;16.30;99.90;;;;;;4933187;29;20066;-78
2022/09/09 03:02:25;;;;;;;1.40;0.75;;;16.40;99.90;;;;;;4934287;29;20039;-79
2022/09/09 03:04:51;;;;;;;1.23;0.80;;;16.40;99.90;;;;;;4934348;29;20038;-79
2022/09/09 03:07:19;;;;;;;6.68;1.83;;;16.40;99.90;;;;;;4949225;28;20163;-78
2022/09/09 03:09:45;;;;;;;0.93;0.40;;;16.40;99.90;;;;;;4948680;28;20039;-78
2022/09/09 03:12:11;;;;;;;1.45;0.70;;;16.30;99.90;;;;;;4933860;29;20104;-77
2022/09/09 03:14:37;;;;;;;0.98;0.63;;;16.30;99.90;;;;;;4934115;29;20055;-78
2022/09/09 03:17:05;;;;;;;1.73;0.75;;;16.30;99.90;;;;;;4934302;29;20030;-78
2022/09/09 03:19:31;;;;;;;6.68;0.82;;;16.30;99.90;;;;;;4948345;28;20118;-78
2022/09/09 03:21:58;;;;;;;1.10;0.90;;;16.30;99.90;;;;;;4948309;29;20114;-78
2022/09/09 03:24:24;;;;;;;1.05;0.68;;;16.30;99.90;;;;;;4933258;29;20042;-78
2022/09/09 03:26:50;;;;;;;1.98;0.77;;;16.20;99.90;;;;;;4933895;29;20031;-78
2022/09/09 03:29:17;;;;;;;2.53;0.85;;;16.20;99.90;;;;;;4933268;29;20031;-78
2022/09/09 03:31:43;;;;;;;2.20;0.80;;;16.10;99.90;;;;;;4933711;29;20027;-79
2022/09/09 03:34:10;;;;;;;3.28;0.52;;;16.00;99.90;;;;;;4933547;29;20481;-79
2022/09/09 03:36:36;;;;;;;0.47;0.10;;;15.90;99.90;;;;;;4932948;29;20032;-79
2022/09/09 03:39:03;;;;;;;3.53;1.67;;;15.90;99.90;;;;;;4932188;29;20559;-79
2022/09/09 03:41:29;;;;;;;0.55;0.40;;;15.90;99.90;;;;;;4927656;29;20035;-79
2022/09/09 03:43:55;;;;;;;1.33;0.90;;;15.90;99.90;;;;;;4885070;29;20505;-78
2022/09/09 03:46:25;;;;;;;0.75;0.57;;;15.90;99.90;;;;;;4925136;29;20075;-78
2022/09/09 03:48:54;;;;;;;1.05;0.55;;;15.90;99.90;;;;;;4936478;29;20508;-75
2022/09/09 03:51:21;;;;;;;1.48;0.65;;;15.90;99.90;;;;;;4947685;29;20055;-74
2022/09/09 03:53:47;;;;;;;0.30;0.30;;;15.90;99.90;;;;;;4937279;28;20039;-75
2022/09/09 03:56:13;;;;;;;3.05;0.40;;;15.90;99.90;;;;;;4940291;29;20028;-76
2022/09/09 03:58:39;;;;;;;1.23;0.93;;;15.90;99.90;;;;;;4941238;29;20047;-74
2022/09/09 04:01:12;;;;;;;4.03;1.25;;;15.90;99.90;;;;;;4935296;28;20044;-74
2022/09/09 04:03:39;;;;;;;2.40;0.60;;;15.80;99.90;;;;;;4932934;29;20028;-75
2022/09/09 04:06:07;;;;;;;1.00;0.70;;;15.80;99.90;;;;;;4933299;29;20040;-75
2022/09/09 04:08:35;;;;;;;0.80;0.45;;;15.80;99.90;;;;;;4933209;29;20436;-72
2022/09/09 04:11:05;;;;;;;1.25;0.50;;;15.80;99.90;;;;;;4932804;29;20594;-73
2022/09/09 04:13:37;;;;;;;0.80;0.60;;;15.70;99.90;;;;;;4931939;29;20049;-72
2022/09/09 04:16:03;;;;;;;3.67;0.50;;;15.70;99.90;;;;;;4943717;29;20039;-73
2022/09/09 04:18:30;;;;;;;1.75;0.30;;;15.70;99.90;;;;;;4947763;29;20036;-77
2022/09/09 04:20:59;;;;;;;2.55;0.47;;;15.70;99.90;;;;;;4933082;29;20038;-71
2022/09/09 04:23:28;;;;;;;0.73;0.73;;;15.80;99.90;;;;;;4947358;29;20047;-74
2022/09/09 04:25:56;;;;;;;0.77;0.35;;;15.70;99.90;;;;;;4947622;29;20069;-72
2022/09/09 04:28:25;;;;;;;1.48;0.80;;;15.60;99.90;;;;;;4935334;29;20081;-73
2022/09/09 04:30:52;;;;;;;0.75;0.47;;;15.60;99.90;;;;;;4966510;28;20031;-73
2022/09/09 04:33:18;;;;;;;1.08;0.90;;;15.70;99.90;;;;;;4951692;28;20395;-73
2022/09/09 04:35:49;;;;;;;0.60;0.40;;;15.70;99.90;;;;;;4967106;28;20476;-72
2022/09/09 04:38:17;;;;;;;0.70;0.47;;;15.70;99.90;;;;;;4951057;28;20126;-73
2022/09/09 04:40:51;;;;;;;1.38;0.80;;;15.80;99.90;;;;;;4950595;28;20077;-73
2022/09/09 04:43:18;;;;;;;0.15;0.15;;;15.90;99.90;;;;;;4966522;28;20031;-73
2022/09/09 04:45:48;;;;;;;3.55;0.90;;;16.00;99.90;;;;;;4965429;28;20280;-74
2022/09/09 04:48:14;;;;;;;0.82;0.63;;;16.00;99.90;;;;;;4948209;28;20039;-73
2022/09/09 04:50:40;;;;;;;0.65;0.22;;;16.20;99.90;;;;;;4936088;29;20094;-74
2022/09/09 04:53:07;;;;;;;0.40;0.30;;;16.20;99.90;;;;;;4950814;28;20035;-73
2022/09/09 04:55:34;;;;;;;0.52;0.28;;;16.30;99.90;;;;;;4951419;28;20046;-73
2022/09/09 04:58:08;;;;;;;2.65;0.85;;;16.30;99.90;;;;;;4951003;28;20075;-74
2022/09/09 05:00:35;;;;;;;0.20;0.13;;;16.30;99.90;;;;;;4936166;29;20495;-75
2022/09/09 05:03:08;;;;;;;2.45;0.40;;;16.30;99.90;;;;;;4935720;29;20448;-75
2022/09/09 05:05:35;;;;;;;1.02;0.63;;;16.30;99.90;;;;;;4936514;29;20074;-75
2022/09/09 05:08:06;;;;;;;0.35;0.30;;;16.40;99.90;;;;;;4936194;29;20467;-75
2022/09/09 05:10:33;;;;;;;2.65;0.50;;;16.40;99.90;;;;;;4935957;29;20027;-75
2022/09/09 05:12:59;;;;;;;0.80;0.47;;;16.40;99.90;;;;;;4950316;29;20032;-75
2022/09/09 05:15:25;;;;;;;1.45;0.20;;;16.40;99.90;;;;;;4945302;29;20514;-75
2022/09/09 05:17:52;;;;;;;0.15;0.15;;;16.30;99.90;;;;;;4937051;28;20024;-75
2022/09/09 05:20:18;;;;;;;2.53;0.60;;;16.40;99.90;;;;;;4950663;28;20209;-75
2022/09/09 05:22:44;;;;;;;0.40;0.30;;;16.50;99.90;;;;;;4936459;29;20126;-75
2022/09/09 05:25:10;;;;;;;0.68;0.13;;;16.50;99.90;;;;;;4935941;29;20034;-75
2022/09/09 05:27:36;;;;;;;0.00;0.00;;;16.60;99.90;;;;;;4935530;29;20467;-75
2022/09/09 05:30:02;;;;;;;0.77;0.25;;;16.60;99.90;;;;;;4950387;28;20103;-75
2022/09/09 05:32:32;;;;;;;1.92;0.30;;;16.60;99.90;;;;;;4950177;28;20272;-76
2022/09/09 05:34:58;;;;;;;0.20;0.20;;;16.50;99.90;;;;;;4947790;29;20431;-75
2022/09/09 05:37:25;;;;;;;0.20;0.17;;;16.50;99.90;;;;;;4974177;23;20613;-76
2022/09/09 05:39:51;;;;;;;0.17;0.17;;;16.60;99.90;;;;;;4993267;28;20672;-75
2022/09/09 05:42:16;;;;;;;0.25;0.20;;;16.60;99.90;;;;;;4991942;28;20080;-75
2022/09/09 05:44:42;;;;;;;1.55;0.73;;;16.70;99.90;;;;;;4993499;28;20045;-75
2022/09/09 05:47:09;;;;;;;0.85;0.40;;;16.60;99.90;;;;;;4993550;28;20039;-75
2022/09/09 05:49:35;;;;;;;0.22;0.15;;;16.60;99.90;;;;;;4981238;28;20027;-74
2022/09/09 05:52:01;;;;;;;2.03;0.20;;;16.70;99.90;;;;;;4972654;28;20255;-75
2022/09/09 05:54:27;;;;;;;0.65;0.55;;;16.70;99.90;;;;;;4973817;28;20078;-74
2022/09/09 05:56:53;;;;;;;0.13;0.05;;;16.60;99.90;;;;;;4988930;28;20035;-75
2022/09/09 05:59:19;;;;;;;1.85;0.40;;;16.70;99.90;;;;;;4972968;28;20023;-75
2022/09/09 06:01:45;;;;;;;0.80;0.80;;;16.70;99.90;;;;;;4974007;28;20439;-76
2022/09/09 06:04:12;;;;;;;1.25;0.40;;;16.80;99.90;;;;;;4969646;28;20479;-71
2022/09/09 06:06:39;;;;;;;0.10;0.10;;;16.70;99.90;;;;;;4972524;28;20427;-72
2022/09/09 06:09:09;;;;;;;0.80;0.47;;;16.80;99.90;;;;;;4972427;28;20030;-71
2022/09/09 06:11:38;;;;;;;1.38;0.35;;;16.80;99.90;;;;;;4971369;28;20066;-71
2022/09/09 06:14:05;;;;;;;0.88;0.45;;;16.90;99.90;;;;;;4972006;28;20046;-70
2022/09/09 06:16:34;;;;;;;0.10;0.10;;;16.80;99.90;;;;;;4974713;28;20110;-72
2022/09/09 06:19:03;;;;;;;3.30;0.30;;;16.80;99.90;;;;;;4971344;28;20436;-73
2022/09/09 06:21:38;;;;;;;1.00;0.38;;;16.90;99.90;;;;;;4971669;28;20046;-71
2022/09/09 06:24:04;;;;;;;1.30;0.60;;;16.80;99.90;;;;;;4970424;28;20057;-71
2022/09/09 06:26:33;;;;;;;0.95;0.45;;;16.70;99.90;;;;;;4972625;28;20034;-72
2022/09/09 06:29:00;;;;;;;1.38;0.60;;;16.70;99.90;;;;;;4971277;28;20043;-71
2022/09/09 06:31:30;;;;;;;1.83;0.65;;;16.80;99.90;;;;;;4972304;28;20060;-70
2022/09/09 06:33:57;;;;;;;2.30;0.73;;;16.90;99.90;;;;;;4971758;28;20038;-69
2022/09/09 06:36:28;;;;;;;7.82;1.52;;;16.90;99.90;;;;;;4972065;28;20027;-70
2022/09/09 06:38:55;;;;;;;0.60;0.30;;;16.80;99.90;;;;;;4970876;28;20039;-70
2022/09/09 06:41:23;;;;;;;7.10;1.13;;;16.90;99.90;;;;;;4970848;28;20069;-71
2022/09/09 06:43:49;;;;;;;12.95;0.88;;;17.00;99.90;;;;;;4971889;28;20158;-71
2022/09/09 06:46:18;;;;;;;3.47;0.45;;;17.10;99.90;;;;;;4973394;28;20038;-71
2022/09/09 06:48:45;;;;;;;1.25;0.38;;;17.00;99.90;;;;;;4971321;28;20089;-71
2022/09/09 06:51:15;;;;;;;1.30;0.57;;;17.00;99.90;;;;;;4970073;28;20027;-71
2022/09/09 06:53:43;;;;;;;1.10;0.47;;;17.00;99.90;;;;;;4970534;28;20622;-71
2022/09/09 06:56:25;;;;;;;4.53;0.82;;;17.20;99.90;;;;;;4971551;28;20539;-71
2022/09/09 06:58:52;;;;;;;2.50;0.68;;;17.10;99.90;;;;;;4970921;28;20766;-71
2022/09/09 07:01:27;;;;;;;7.97;1.13;;;17.20;99.90;;;;;;4971737;28;20042;-71
2022/09/09 07:03:56;;;;;;;1.40;0.55;;;17.20;99.90;;;;;;4969889;28;20034;-71
2022/09/09 07:06:30;;;;;;;2.55;1.92;;;17.20;99.90;;;;;;4971330;28;20066;-70
2022/09/09 07:09:03;;;;;;;3.20;0.28;;;17.40;99.90;;;;;;4969728;28;20039;-72
2022/09/09 07:11:38;;;;;;;2.00;0.52;;;17.40;99.90;;;;;;4963341;28;20031;-72
2022/09/09 07:14:04;;;;;;;3.17;0.98;;;17.40;99.90;;;;;;4970708;28;20489;-72
2022/09/09 07:16:31;;;;;;;7.18;1.63;;;17.30;99.90;;;;;;4969829;28;20039;-73
2022/09/09 07:18:57;;;;;;;7.15;1.15;;;17.40;99.90;;;;;;4970746;28;20045;-73
2022/09/09 07:21:26;;;;;;;10.43;1.02;;;17.50;99.90;;;;;;4970807;28;20026;-73
2022/09/09 07:23:52;;;;;;;2.10;0.38;;;17.60;99.90;;;;;;4970446;28;20053;-72
2022/09/09 07:26:22;;;;;;;1.15;0.52;;;17.70;99.90;;;;;;4971868;28;20484;-72
2022/09/09 07:28:48;;;;;;;4.45;0.45;;;17.90;99.90;;;;;;4971212;28;20031;-72
2022/09/09 07:31:32;;;;;;;2.78;0.93;;;17.90;99.90;;;;;;4970665;28;20118;-73
2022/09/09 07:34:02;;;;;;;1.23;0.68;;;18.00;99.90;;;;;;4970337;28;20474;-72
2022/09/09 07:36:39;;;;;;;0.75;0.50;;;17.90;99.90;;;;;;4970394;28;20031;-72
2022/09/09 07:39:09;;;;;;;4.75;0.95;;;17.80;99.90;;;;;;4971148;28;20031;-73
2022/09/09 07:41:48;;;;;;;0.55;0.40;;;17.90;99.90;;;;;;4971711;28;20494;-72
2022/09/09 07:44:21;;;;;;;0.95;0.60;;;17.90;99.90;;;;;;4970199;28;20062;-73
2022/09/09 07:46:48;;;;;;;1.00;0.50;;;18.10;99.90;;;;;;4981213;28;20038;-73
2022/09/09 07:49:14;;;;;;;2.17;0.45;;;18.20;99.90;;;;;;4990825;28;20085;-72
2022/09/09 07:51:45;;;;;;;1.05;0.70;;;18.30;99.90;;;;;;4989759;28;20110;-72
2022/09/09 07:54:13;;;;;;;2.35;0.60;;;18.20;99.90;;;;;;4990829;28;20074;-72
2022/09/09 07:56:40;;;;;;;0.38;0.30;;;18.30;99.90;;;;;;4990767;28;20045;-72
2022/09/09 07:59:07;;;;;;;1.77;1.08;;;18.30;99.90;;;;;;4975023;28;20034;-72
2022/09/09 08:01:40;;;;;;;0.95;0.25;;;18.50;99.90;;;;;;4971395;28;20399;-72
2022/09/09 08:04:16;;;;;;;4.40;0.90;;;18.50;99.90;;;;;;4971156;28;20070;-74
2022/09/09 08:06:47;;;;;;;4.70;0.75;;;18.50;99.90;;;;;;4970649;28;20509;-73
2022/09/09 08:09:13;;;;;;;3.15;1.25;;;18.50;99.90;;;;;;4971138;28;20041;-72
2022/09/09 08:11:41;;;;;;;1.55;0.63;;;18.60;99.90;;;;;;4986270;28;20034;-72
2022/09/09 08:14:09;;;;;;;0.82;0.50;;;18.50;99.90;;;;;;4970456;28;20078;-72
2022/09/09 08:16:40;;;;;;;1.63;0.60;;;18.50;99.90;;;;;;4978013;28;20042;-70
2022/09/09 08:19:07;;;;;;;1.77;0.95;;;18.40;99.90;;;;;;4971287;28;20081;-71
2022/09/09 08:21:36;;;;;;;3.22;1.17;;;18.40;99.90;;;;;;4970018;28;20039;-72
2022/09/09 08:24:04;;;;;;;1.65;0.43;;;18.40;99.90;;;;;;4973320;28;20085;-71
2022/09/09 08:26:41;;;;;;;1.58;1.25;;;18.30;99.90;;;;;;4974593;28;20058;-72
2022/09/09 08:29:09;;;;;;;2.75;0.45;;;18.30;99.90;;;;;;4971479;28;20049;-72
2022/09/09 08:31:46;;;;;;;0.35;0.13;;;18.30;99.90;;;;;;4973474;28;20078;-72
2022/09/09 08:34:13;;;;;;;1.38;0.50;;;18.30;99.90;;;;;;4957817;28;20085;-72
2022/09/09 08:36:45;;;;;;;2.17;0.65;;;18.20;99.90;;;;;;4973691;28;20031;-71
2022/09/09 08:39:16;;;;;;;5.65;0.68;;;18.30;99.90;;;;;;4956154;28;20031;-72
2022/09/09 08:42:09;;;;;;;0.80;0.43;;;18.30;99.90;;;;;;4973788;28;20038;-72
2022/09/09 08:44:41;;;;;;;5.90;0.70;;;18.30;99.90;;;;;;4974891;28;20034;-73
2022/09/09 08:50:12;;;;;;;0.22;0.22;;;18.60;99.90;;;;;;4956895;28;20055;-73
2022/09/09 08:52:57;;;;;;;1.00;0.88;;;18.60;99.90;;;;;;4947133;28;20035;-73
2022/09/09 08:55:35;;;;;;;4.45;0.85;;;18.50;99.90;;;;;;4961342;28;20043;-73
2022/09/09 08:58:30;;;;;;;0.47;0.38;;;18.60;99.90;;;;;;4958817;28;20393;-72
2022/09/09 09:01:08;;;;;;;0.77;0.13;;;18.70;99.90;;;;;;4958343;28;20093;-72
2022/09/09 09:03:52;;;;;;;3.17;0.40;;;18.70;99.90;;;;;;4967959;28;20089;-73
2022/09/09 09:06:30;;;;;;;0.30;0.10;;;18.60;99.90;;;;;;4951683;28;20037;-71
2022/09/09 09:09:15;;;;;;;0.30;0.20;;;18.60;99.90;;;;;;4958491;28;20058;-71
2022/09/09 09:11:48;;;;;;;1.75;0.35;;;18.70;99.90;;;;;;4961013;28;20022;-72
2022/09/09 09:14:23;;;;;;;2.25;0.30;;;18.80;99.90;;;;;;4968066;28;20035;-72
2022/09/09 09:17:06;;;;;;;0.60;0.30;;;18.90;99.90;;;;;;4982712;28;20505;-72
2022/09/09 09:19:35;;;;;;;7.53;1.17;;;19.00;99.90;;;;;;4973902;28;20026;-72
2022/09/09 09:22:39;;;;;;;4.57;0.40;;;19.10;99.90;;;;;;4984429;28;20034;-73
2022/09/09 09:25:34;;;;;;;9.02;1.55;;;19.30;99.90;;;;;;4983834;28;20033;-72
2022/09/09 09:28:25;;;;;;;1.77;0.75;;;19.50;99.90;;;;;;4961910;28;20035;-72
2022/09/09 09:31:05;;;;;;;0.55;0.30;;;19.20;99.90;;;;;;4965201;28;20043;-72
2022/09/09 09:33:40;;;;;;;7.15;0.20;;;19.00;99.90;;;;;;4956249;28;20095;-73
2022/09/09 09:36:09;;;;;;;4.43;0.45;;;19.10;99.90;;;;;;4962632;28;20298;-72
2022/09/09 09:38:37;;;;;;;8.27;1.35;;;19.30;99.90;;;;;;4956824;28;20031;-72
2022/09/09 09:41:03;;;;;;;21.83;1.98;;;19.50;99.90;;;;;;4968623;28;20054;-71
2022/09/09 09:43:37;;;;;;;8.63;0.68;;;19.60;99.90;;;;;;4972296;28;20038;-70
2022/09/09 09:46:23;;;;;;;4.80;0.52;;;19.60;99.90;;;;;;4980460;28;20526;-69
2022/09/09 09:49:05;;;;;;;1.52;0.50;;;19.40;99.90;;;;;;4952288;28;20043;-78
2022/09/09 09:51:33;;;;;;;1.50;0.77;;;19.40;99.90;;;;;;4964766;28;20146;-76
2022/09/09 09:54:33;;;;;;;1.42;0.75;;;19.20;99.90;;;;;;4968761;28;20081;-74
2022/09/09 09:57:31;;;;;;;4.72;0.60;;;19.10;99.90;;;;;;4952997;28;20116;-73
2022/09/09 10:00:16;;;;;;;0.40;0.32;;;19.00;99.90;;;;;;4955502;28;20042;-71
2022/09/09 10:02:44;;;;;;;1.77;0.40;;;18.90;99.90;;;;;;4972721;28;20031;-74
2022/09/09 10:05:16;;;;;;;0.50;0.40;;;18.80;99.90;;;;;;4979958;28;20086;-74
2022/09/09 10:07:45;;;;;;;4.45;0.70;;;18.00;99.90;;;;;;4968015;28;20027;-75
2022/09/09 10:10:33;;;;;;;2.67;0.60;;;17.40;99.90;;;;;;4968667;28;20031;-77
2022/09/09 10:13:13;;;;;;;0.90;0.20;;;17.20;99.90;;;;;;4971326;28;20035;-72
2022/09/09 10:15:52;;;;;;;0.77;0.30;;;17.20;99.90;;;;;;4962483;28;20073;-75
2022/09/09 10:18:54;;;;;;;6.95;1.08;;;17.20;99.90;;;;;;4980928;28;20058;-74
2022/09/09 10:21:59;;;;;;;8.10;0.85;;;17.10;99.90;;;;;;4979193;28;20555;-73
2022/09/09 10:25:02;;;;;;;1.48;0.45;;;17.30;99.90;;;;;;4967032;28;20098;-72
2022/09/09 10:28:01;;;;;;;1.40;0.68;;;17.50;99.90;;;;;;4950182;28;20039;-74
2022/09/09 10:30:49;;;;;;;5.18;0.85;;;17.70;99.90;;;;;;4952929;28;20047;-73
2022/09/09 10:33:47;;;;;;;2.20;0.43;;;18.20;99.90;;;;;;4965009;28;20039;-73
2022/09/09 10:36:19;;;;;;;1.10;0.60;;;18.60;99.90;;;;;;4959419;28;20035;-74
2022/09/09 10:39:00;;;;;;;6.78;1.70;;;19.00;99.90;;;;;;4986777;28;20084;-74
2022/09/09 10:42:02;;;;;;;3.75;1.27;;;19.10;99.90;;;;;;4974280;28;20141;-73
2022/09/09 10:44:52;;;;;;;5.10;1.38;;;19.40;99.90;;;;;;4934165;29;20464;-72
2022/09/09 10:48:01;;;;;;;4.20;0.57;;;19.60;99.90;;;;;;4961659;28;20034;-74
2022/09/09 10:50:50;;;;;;;2.08;0.35;;;19.80;99.90;;;;;;4960291;28;20054;-74
2022/09/09 10:53:54;;;;;;;2.25;0.55;;;20.00;99.90;;;;;;4973366;28;20452;-74
2022/09/09 10:56:25;;;;;;;1.85;0.35;;;20.30;99.90;;;;;;4970969;28;20535;-73
2022/09/09 10:59:10;;;;;;;7.63;0.98;;;20.30;99.90;;;;;;4984001;28;20066;-73
2022/09/09 11:01:50;;;;;;;6.00;0.75;;;20.80;99.90;;;;;;4972740;28;20563;-73
2022/09/09 11:04:21;;;;;;;0.88;0.50;;;20.80;99.90;;;;;;4986198;28;20109;-74
2022/09/09 11:06:53;;;;;;;2.67;0.65;;;21.00;99.90;;;;;;4975230;28;20042;-74
2022/09/09 11:09:28;;;;;;;4.43;0.75;;;20.70;99.90;;;;;;4986045;28;20034;-74
2022/09/09 11:12:02;;;;;;;0.82;0.30;;;20.60;99.90;;;;;;4973535;28;20562;-74
2022/09/09 11:14:37;;;;;;;1.50;0.52;;;20.90;99.90;;;;;;4969204;28;20054;-72
2022/09/09 11:17:35;;;;;;;1.55;0.88;;;21.00;99.90;;;;;;4977893;28;20033;-74
2022/09/09 11:20:01;;;;;;;1.85;0.52;;;20.90;99.90;;;;;;4952899;28;20124;-72
2022/09/09 11:22:35;;;;;;;0.22;0.20;;;21.00;99.90;;;;;;4960627;28;20051;-73
2022/09/09 11:25:08;;;;;;;1.80;0.28;;;21.20;99.90;;;;;;4950313;28;20038;-74
2022/09/09 11:27:51;;;;;;;6.78;1.75;;;21.80;99.90;;;;;;4957471;28;20494;-73
2022/09/09 11:30:28;;;;;;;1.55;0.57;;;22.20;99.90;;;;;;4954082;28;20667;-73
2022/09/09 11:33:11;;;;;;;0.10;0.10;;;22.00;99.90;;;;;;4977002;28;20039;-74
2022/09/09 11:36:08;;;;;;;1.20;0.55;;;21.90;99.90;;;;;;4966075;28;20062;-73
2022/09/09 11:38:51;;;;;;;2.55;0.30;;;22.10;99.90;;;;;;4959111;28;20027;-73
2022/09/09 11:41:20;;;;;;;5.13;0.30;;;22.10;99.90;;;;;;4960066;28;20058;-74
2022/09/09 11:43:52;;;;;;;4.72;1.02;;;21.80;99.90;;;;;;4958189;28;20565;-73
2022/09/09 11:46:22;;;;;;;3.95;0.38;;;21.80;99.90;;;;;;4973714;28;20078;-73
2022/09/09 11:49:01;;;;;;;3.95;0.95;;;21.60;99.90;;;;;;4976532;28;20136;-74
2022/09/09 11:51:30;;;;;;;1.08;0.43;;;21.60;99.90;;;;;;4978436;28;20039;-73
2022/09/09 11:54:44;;;;;;;4.75;1.27;;;21.40;99.90;;;;;;4981080;28;20031;-75
2022/09/09 11:57:34;;;;;;;0.75;0.38;;;21.50;99.90;;;;;;4938172;28;20141;-76
2022/09/09 12:00:00;;;;;;;9.25;1.20;;;21.70;99.90;;;;;;4970103;28;20046;-74
2022/09/09 12:02:31;;;;;;;1.00;0.77;;;21.40;99.90;;;;;;4977209;28;20050;-75
2022/09/09 12:05:12;;;;;;;1.83;0.40;;;21.30;99.90;;;;;;4970484;28;20031;-74
2022/09/09 12:07:42;;;;;;;4.18;0.63;;;21.30;99.90;;;;;;4959682;28;20031;-74
2022/09/09 12:10:08;;;;;;;2.83;0.32;;;21.20;99.90;;;;;;4968761;28;20039;-74
2022/09/09 12:12:37;;;;;;;2.17;0.63;;;21.10;99.90;;;;;;4960639;28;20033;-74
2022/09/09 12:15:19;;;;;;;1.80;0.30;;;21.00;99.90;;;;;;4966678;28;20028;-74
2022/09/09 12:17:53;;;;;;;4.35;0.60;;;20.90;99.90;;;;;;4964225;28;20085;-73
2022/09/09 12:20:21;;;;;;;0.50;0.30;;;20.90;99.90;;;;;;4968723;28;20031;-73
2022/09/09 12:23:26;;;;;;;4.65;0.30;;;20.70;99.90;;;;;;4960151;28;20105;-73
2022/09/09 12:26:23;;;;;;;3.88;0.08;;;20.40;99.90;;;;;;4958905;28;20046;-76
2022/09/09 12:29:18;;;;;;;3.55;0.50;;;19.00;99.90;;;;;;4964014;28;20492;-75
2022/09/09 12:31:58;;;;;;;1.00;0.47;;;17.40;99.90;;;;;;4959884;28;20039;-75
2022/09/09 12:34:42;;;;;;;0.03;0.03;;;16.60;99.90;;;;;;4954693;28;20031;-75
2022/09/09 12:37:41;;;;;;;0.90;0.30;;;16.40;99.90;;;;;;4972721;28;20030;-75
2022/09/09 12:40:19;;;;;;;0.45;0.20;;;16.30;99.90;;;;;;4946754;28;20034;-75
2022/09/09 12:42:44;;;;;;;1.65;0.20;;;16.40;99.90;;;;;;4975411;28;20373;-75
2022/09/09 12:45:17;;;;;;;0.43;0.20;;;16.40;99.90;;;;;;4984273;28;20054;-76
2022/09/09 12:48:01;;;;;;;0.25;0.10;;;16.40;99.90;;;;;;4974745;28;20081;-75
2022/09/09 12:50:37;;;;;;;1.95;0.75;;;16.50;99.90;;;;;;4979981;28;20023;-74
2022/09/09 12:53:31;;;;;;;0.40;0.05;;;16.70;99.90;;;;;;4966576;28;20039;-75
2022/09/09 12:56:09;;;;;;;2.67;0.82;;;17.10;99.90;;;;;;4980658;28;20056;-74
2022/09/09 12:58:37;;;;;;;4.85;0.57;;;17.70;99.90;;;;;;4956805;28;20027;-74
2022/09/09 13:01:05;;;;;;;0.63;0.47;;;17.80;99.90;;;;;;4970364;28;20050;-74
2022/09/09 13:03:33;;;;;;;1.42;0.30;;;17.90;99.90;;;;;;4962082;28;20039;-75
2022/09/09 13:06:14;;;;;;;4.15;0.43;;;17.90;99.90;;;;;;4958394;28;20039;-74
2022/09/09 13:08:40;;;;;;;0.88;0.32;;;17.90;99.90;;;;;;4961076;28;20437;-74
2022/09/09 13:11:22;;;;;;;0.55;0.30;;;17.90;99.90;;;;;;4962814;28;20035;-74
2022/09/09 13:13:54;;;;;;;2.78;0.60;;;17.80;99.90;;;;;;4961639;28;20113;-73
2022/09/09 13:16:31;;;;;;;1.42;0.60;;;18.00;99.90;;;;;;4981138;28;20475;-76
2022/09/09 13:19:09;;;;;;;3.10;0.88;;;17.70;99.90;;;;;;4975359;28;20023;-76
2022/09/09 13:21:39;;;;;;;0.57;0.45;;;17.40;99.90;;;;;;4973026;28;20423;-75
2022/09/09 13:24:33;;;;;;;7.05;1.27;;;17.00;99.90;;;;;;4983365;28;20125;-75
2022/09/09 13:27:21;;;;;;;0.65;0.60;;;16.80;99.90;;;;;;4963058;28;20031;-79
2022/09/09 13:29:56;;;;;;;3.88;0.93;;;16.20;99.90;;;;;;4985058;28;20054;-87
2022/09/09 13:32:23;;;;;;;4.78;0.17;;;16.00;99.90;;;;;;4976847;28;20438;-84
2022/09/09 13:34:56;;;;;;;0.95;0.55;;;16.00;99.90;;;;;;4957223;28;20085;-84